APA - Centennial

Pirep is a free, collaborative database of all public and private airports located within the United States. All pilots are welcome to contribute, edit, and improve any airport they have local knowledge about, no registration required.
Uploaded photos will be licensed under a CC BY-SA 4.0 license. Please only upload photos you have the rights to use.
Tags
Public
Food
METAR / TAF
Webcam
Edit Tags
Camping
Lodging
Car Rental
Bicycles
Swimming
Golfing
Fishing
Hot Springs
Museum
Flying Clubs
Airpark
Upcoming Events
No upcoming events. Is anything happening here soon?
*
*
*

Where exactly on/near the airport is this event taking place?

Is there a webpage with more information for this event?

Who should be contacted for more information?

What is this event all about?

Repeat every
Description
Last updated: 2024-04-15 23:23:01 MDT
Transient Parking
Fuel Location
Landing & Tie-down Fees
Crew Car Availability
Flying Clubs
WiFi Access
Airport Statistics
Location: Denver, CO
Elevation: 5,884ft
Sectional: Denver
Activation date: Mar 1968
Fuel: 100LL, A, UL94 (prices)
Runway 17L/35R: 10,001ft
Runway 17R/35L: 7,001ft
Runway 10/28: 4,800ft
Runway H1: 50ft
Access: Open to the public
Current Weather — VFR
  • Weather data is strictly informational and not for flight planning purposes.
  • METAR
    2024-04-21 23:53:00 MDT
    Ceiling Wind Temperature Dewpoint Weather Visbility
    Sky clear 180° @ 6kt 46°F 33°F N/A 10SM
    Clouds: Scattered @ 20,000ft
    Raw: KAPA 220553Z 18006KT 10SM SCT200 08/01 A3003 RMK AO2 SLP147 T00830011 10144 20083 58010
  • TAF
    2024-04-22 00:00:00 MDT – 2024-04-22 04:00:00 MDT
    Ceiling Wind Weather Visbility
    20,000ft 180° @ 12kt N/A 6SM
    Clouds: Broken @ 20,000ft
    Raw: KAPA 220539Z 2206/2306 18012KT P6SM BKN200 FM221000 21011KT P6SM BKN200 FM221600 24012KT P6SM FEW080 BKN200 FM221800 28014KT P6SM SCT080 BKN200 TEMPO 2220/2224 29015G25KT FM230100 27010KT P6SM FEW080 BKN200
  • TAF
    2024-04-22 04:00:00 MDT – 2024-04-22 10:00:00 MDT
    Ceiling Wind Weather Visbility
    20,000ft 210° @ 11kt N/A 6SM
    Clouds: Broken @ 20,000ft
    Raw: KAPA 220539Z 2206/2306 18012KT P6SM BKN200 FM221000 21011KT P6SM BKN200 FM221600 24012KT P6SM FEW080 BKN200 FM221800 28014KT P6SM SCT080 BKN200 TEMPO 2220/2224 29015G25KT FM230100 27010KT P6SM FEW080 BKN200
  • TAF
    2024-04-22 10:00:00 MDT – 2024-04-22 12:00:00 MDT
    Ceiling Wind Weather Visbility
    20,000ft 240° @ 12kt N/A 6SM
    Clouds: Few @ 8,000ft, Broken @ 20,000ft
    Raw: KAPA 220539Z 2206/2306 18012KT P6SM BKN200 FM221000 21011KT P6SM BKN200 FM221600 24012KT P6SM FEW080 BKN200 FM221800 28014KT P6SM SCT080 BKN200 TEMPO 2220/2224 29015G25KT FM230100 27010KT P6SM FEW080 BKN200
  • TAF
    2024-04-22 12:00:00 MDT – 2024-04-22 19:00:00 MDT
    Ceiling Wind Weather Visbility
    20,000ft 280° @ 14kt N/A 6SM
    Clouds: Scattered @ 8,000ft, Broken @ 20,000ft
    Raw: KAPA 220539Z 2206/2306 18012KT P6SM BKN200 FM221000 21011KT P6SM BKN200 FM221600 24012KT P6SM FEW080 BKN200 FM221800 28014KT P6SM SCT080 BKN200 TEMPO 2220/2224 29015G25KT FM230100 27010KT P6SM FEW080 BKN200
  • TAF
    2024-04-22 14:00:00 MDT – 2024-04-22 18:00:00 MDT
    Ceiling Wind Weather Visbility
    Sky clear 290° @ 15kt, gusts 25kt N/A SM
    Raw: KAPA 220539Z 2206/2306 18012KT P6SM BKN200 FM221000 21011KT P6SM BKN200 FM221600 24012KT P6SM FEW080 BKN200 FM221800 28014KT P6SM SCT080 BKN200 TEMPO 2220/2224 29015G25KT FM230100 27010KT P6SM FEW080 BKN200
  • TAF
    2024-04-22 19:00:00 MDT – 2024-04-23 00:00:00 MDT
    Ceiling Wind Weather Visbility
    20,000ft 270° @ 10kt N/A 6SM
    Clouds: Few @ 8,000ft, Broken @ 20,000ft
    Raw: KAPA 220539Z 2206/2306 18012KT P6SM BKN200 FM221000 21011KT P6SM BKN200 FM221600 24012KT P6SM FEW080 BKN200 FM221800 28014KT P6SM SCT080 BKN200 TEMPO 2220/2224 29015G25KT FM230100 27010KT P6SM FEW080 BKN200
Click/tap to add an annotation marker to the map
Direct links to live image URLs will be displayed inline on this page. URLs to separate webpages will be linked to.
URL:
Direct links to live image URLs will be displayed inline on this page. URLs to separate webpages will be linked to.
URL:
Remarks
  • All acft blo cert 70000 lb max gross tkof wt & stage iii acft up to cert 75000 lb max gross tkof wt may opr; one-time exception auzd by exec dir.
  • Waterfowl on & invof arpt.
  • Nmrs cranes invof arpt.
  • +190 ft twr lctd 1800 ft ene of ry 17l thld.
  • Rwy 35r crosswind/base leg n of lincoln ave; rwy 17l crosswind/base leg s of arapahoe road; rwy 17r/35l clsd tfc remain s of arapahoe road & e of interstate 25; rwy 10/28 avoid noise sensitive area 1 mi s & e of rwy.
Comments
Leave a comment What was your experience like at this airport?